sensor_id;sensor_type;location;lat;lon;timestamp;P1;durP1;ratioP1;P2;durP2;ratioP2
63906;SDS011;50075;49.484;11.238;2022-09-01T00:02:01;32.33;;;7.13;;
63906;SDS011;50075;49.484;11.238;2022-09-01T00:04:32;31.23;;;7.00;;
63906;SDS011;50075;49.484;11.238;2022-09-01T00:07:02;37.08;;;7.03;;
63906;SDS011;50075;49.484;11.238;2022-09-01T00:09:32;33.45;;;7.00;;
63906;SDS011;50075;49.484;11.238;2022-09-01T00:11:57;35.78;;;7.07;;
63906;SDS011;50075;49.484;11.238;2022-09-01T00:14:26;28.67;;;6.65;;
63906;SDS011;50075;49.484;11.238;2022-09-01T00:16:53;35.42;;;7.07;;
63906;SDS011;50075;49.484;11.238;2022-09-01T00:19:19;26.85;;;7.32;;
63906;SDS011;50075;49.484;11.238;2022-09-01T00:21:45;29.38;;;6.70;;
63906;SDS011;50075;49.484;11.238;2022-09-01T00:24:12;32.80;;;7.13;;
63906;SDS011;50075;49.484;11.238;2022-09-01T00:26:40;36.00;;;7.80;;
63906;SDS011;50075;49.484;11.238;2022-09-01T00:29:05;45.10;;;8.10;;
63906;SDS011;50075;49.484;11.238;2022-09-01T00:31:31;36.83;;;7.18;;
63906;SDS011;50075;49.484;11.238;2022-09-01T00:33:57;31.90;;;6.45;;
63906;SDS011;50075;49.484;11.238;2022-09-01T00:36:23;25.92;;;6.45;;
63906;SDS011;50075;49.484;11.238;2022-09-01T00:38:50;32.35;;;6.95;;
63906;SDS011;50075;49.484;11.238;2022-09-01T00:41:17;38.90;;;7.90;;
63906;SDS011;50075;49.484;11.238;2022-09-01T00:46:10;38.17;;;7.97;;
63906;SDS011;50075;49.484;11.238;2022-09-01T00:48:45;35.50;;;7.82;;
63906;SDS011;50075;49.484;11.238;2022-09-01T00:51:15;39.65;;;7.75;;
63906;SDS011;50075;49.484;11.238;2022-09-01T00:53:40;29.77;;;6.82;;
63906;SDS011;50075;49.484;11.238;2022-09-01T00:56:08;32.40;;;7.63;;
63906;SDS011;50075;49.484;11.238;2022-09-01T00:58:34;34.20;;;7.30;;
63906;SDS011;50075;49.484;11.238;2022-09-01T01:01:01;37.15;;;7.65;;
63906;SDS011;50075;49.484;11.238;2022-09-01T01:03:27;31.70;;;7.05;;
63906;SDS011;50075;49.484;11.238;2022-09-01T01:05:54;27.00;;;6.85;;
63906;SDS011;50075;49.484;11.238;2022-09-01T01:08:29;26.48;;;6.60;;
63906;SDS011;50075;49.484;11.238;2022-09-01T01:10:58;34.08;;;7.43;;
63906;SDS011;50075;49.484;11.238;2022-09-01T01:13:28;36.55;;;7.20;;
63906;SDS011;50075;49.484;11.238;2022-09-01T01:15:56;31.23;;;7.03;;
63906;SDS011;50075;49.484;11.238;2022-09-01T01:18:23;33.95;;;7.47;;
63906;SDS011;50075;49.484;11.238;2022-09-01T01:21:12;29.42;;;7.15;;
63906;SDS011;50075;49.484;11.238;2022-09-01T01:24:00;28.48;;;7.07;;
63906;SDS011;50075;49.484;11.238;2022-09-01T01:26:30;37.15;;;7.30;;
63906;SDS011;50075;49.484;11.238;2022-09-01T01:28:56;32.17;;;7.07;;
63906;SDS011;50075;49.484;11.238;2022-09-01T01:31:22;32.65;;;7.15;;
63906;SDS011;50075;49.484;11.238;2022-09-01T01:33:49;33.10;;;7.55;;
63906;SDS011;50075;49.484;11.238;2022-09-01T01:38:46;38.90;;;8.07;;
63906;SDS011;50075;49.484;11.238;2022-09-01T01:41:13;30.17;;;7.38;;
63906;SDS011;50075;49.484;11.238;2022-09-01T01:43:41;37.47;;;7.78;;
63906;SDS011;50075;49.484;11.238;2022-09-01T01:46:09;35.08;;;7.72;;
63906;SDS011;50075;49.484;11.238;2022-09-01T01:48:37;36.25;;;7.30;;
63906;SDS011;50075;49.484;11.238;2022-09-01T01:51:05;45.97;;;8.40;;
63906;SDS011;50075;49.484;11.238;2022-09-01T01:53:31;31.45;;;7.13;;
63906;SDS011;50075;49.484;11.238;2022-09-01T01:55:57;30.83;;;7.28;;
63906;SDS011;50075;49.484;11.238;2022-09-01T01:58:25;31.17;;;7.50;;
63906;SDS011;50075;49.484;11.238;2022-09-01T02:00:54;42.10;;;8.70;;
63906;SDS011;50075;49.484;11.238;2022-09-01T02:03:21;30.42;;;7.07;;
63906;SDS011;50075;49.484;11.238;2022-09-01T02:05:54;35.45;;;7.53;;
63906;SDS011;50075;49.484;11.238;2022-09-01T02:08:21;28.38;;;7.28;;
63906;SDS011;50075;49.484;11.238;2022-09-01T02:10:51;35.85;;;7.45;;
63906;SDS011;50075;49.484;11.238;2022-09-01T02:13:19;33.42;;;7.13;;
63906;SDS011;50075;49.484;11.238;2022-09-01T02:15:50;39.27;;;7.97;;
63906;SDS011;50075;49.484;11.238;2022-09-01T02:18:22;29.02;;;6.82;;
63906;SDS011;50075;49.484;11.238;2022-09-01T02:20:51;34.55;;;7.53;;
63906;SDS011;50075;49.484;11.238;2022-09-01T02:23:18;30.05;;;7.60;;
63906;SDS011;50075;49.484;11.238;2022-09-01T02:25:47;37.08;;;7.90;;
63906;SDS011;50075;49.484;11.238;2022-09-01T02:28:16;31.92;;;7.57;;
63906;SDS011;50075;49.484;11.238;2022-09-01T02:30:44;33.63;;;7.45;;
63906;SDS011;50075;49.484;11.238;2022-09-01T02:33:13;41.15;;;8.43;;
63906;SDS011;50075;49.484;11.238;2022-09-01T02:35:51;32.90;;;7.57;;
63906;SDS011;50075;49.484;11.238;2022-09-01T02:38:21;34.08;;;7.80;;
63906;SDS011;50075;49.484;11.238;2022-09-01T02:40:50;33.85;;;7.95;;
63906;SDS011;50075;49.484;11.238;2022-09-01T02:43:18;44.90;;;8.80;;
63906;SDS011;50075;49.484;11.238;2022-09-01T02:45:50;34.60;;;7.68;;
63906;SDS011;50075;49.484;11.238;2022-09-01T02:48:23;38.95;;;8.63;;
63906;SDS011;50075;49.484;11.238;2022-09-01T02:50:53;36.97;;;7.50;;
63906;SDS011;50075;49.484;11.238;2022-09-01T02:53:21;45.15;;;9.00;;
63906;SDS011;50075;49.484;11.238;2022-09-01T02:55:47;31.63;;;7.75;;
63906;SDS011;50075;49.484;11.238;2022-09-01T02:58:12;36.88;;;8.77;;
63906;SDS011;50075;49.484;11.238;2022-09-01T03:00:44;31.52;;;7.72;;
63906;SDS011;50075;49.484;11.238;2022-09-01T03:03:10;28.55;;;6.55;;
63906;SDS011;50075;49.484;11.238;2022-09-01T03:05:41;33.80;;;7.65;;
63906;SDS011;50075;49.484;11.238;2022-09-01T03:08:09;29.17;;;7.82;;
63906;SDS011;50075;49.484;11.238;2022-09-01T03:10:37;42.97;;;8.95;;
63906;SDS011;50075;49.484;11.238;2022-09-01T03:13:06;36.15;;;7.68;;
63906;SDS011;50075;49.484;11.238;2022-09-01T03:15:34;50.78;;;9.02;;
63906;SDS011;50075;49.484;11.238;2022-09-01T03:18:00;36.10;;;7.88;;
63906;SDS011;50075;49.484;11.238;2022-09-01T03:20:28;38.42;;;8.93;;
63906;SDS011;50075;49.484;11.238;2022-09-01T03:22:57;33.42;;;8.25;;
63906;SDS011;50075;49.484;11.238;2022-09-01T03:25:23;28.45;;;7.97;;
63906;SDS011;50075;49.484;11.238;2022-09-01T03:27:50;30.85;;;8.65;;
63906;SDS011;50075;49.484;11.238;2022-09-01T03:30:16;36.00;;;8.20;;
63906;SDS011;50075;49.484;11.238;2022-09-01T03:32:42;34.30;;;8.90;;
63906;SDS011;50075;49.484;11.238;2022-09-01T03:35:09;37.75;;;9.13;;
63906;SDS011;50075;49.484;11.238;2022-09-01T03:37:35;40.00;;;8.65;;
63906;SDS011;50075;49.484;11.238;2022-09-01T03:40:04;35.53;;;8.85;;
63906;SDS011;50075;49.484;11.238;2022-09-01T03:42:31;37.00;;;8.60;;
63906;SDS011;50075;49.484;11.238;2022-09-01T03:44:56;38.65;;;8.88;;
63906;SDS011;50075;49.484;11.238;2022-09-01T03:47:23;37.08;;;8.23;;
63906;SDS011;50075;49.484;11.238;2022-09-01T03:49:49;48.78;;;9.23;;
63906;SDS011;50075;49.484;11.238;2022-09-01T03:52:15;37.72;;;8.40;;
63906;SDS011;50075;49.484;11.238;2022-09-01T03:54:42;42.83;;;8.98;;
63906;SDS011;50075;49.484;11.238;2022-09-01T03:57:09;34.13;;;7.57;;
63906;SDS011;50075;49.484;11.238;2022-09-01T03:59:35;34.42;;;7.93;;
63906;SDS011;50075;49.484;11.238;2022-09-01T04:02:03;37.35;;;8.05;;
63906;SDS011;50075;49.484;11.238;2022-09-01T04:04:28;36.25;;;7.82;;
63906;SDS011;50075;49.484;11.238;2022-09-01T04:06:57;42.97;;;8.75;;
63906;SDS011;50075;49.484;11.238;2022-09-01T04:09:26;28.77;;;7.60;;
63906;SDS011;50075;49.484;11.238;2022-09-01T04:11:52;41.50;;;9.07;;
63906;SDS011;50075;49.484;11.238;2022-09-01T04:14:18;36.20;;;8.32;;
63906;SDS011;50075;49.484;11.238;2022-09-01T04:16:44;36.45;;;8.07;;
63906;SDS011;50075;49.484;11.238;2022-09-01T04:19:31;35.15;;;8.23;;
63906;SDS011;50075;49.484;11.238;2022-09-01T04:22:01;44.92;;;9.32;;
63906;SDS011;50075;49.484;11.238;2022-09-01T04:24:28;29.95;;;7.63;;
63906;SDS011;50075;49.484;11.238;2022-09-01T04:26:56;38.55;;;8.52;;
63906;SDS011;50075;49.484;11.238;2022-09-01T04:29:26;34.78;;;8.20;;
63906;SDS011;50075;49.484;11.238;2022-09-01T04:31:53;38.10;;;9.05;;
63906;SDS011;50075;49.484;11.238;2022-09-01T04:34:26;35.22;;;8.35;;
63906;SDS011;50075;49.484;11.238;2022-09-01T04:36:52;37.60;;;7.95;;
63906;SDS011;50075;49.484;11.238;2022-09-01T04:39:18;35.17;;;8.50;;
63906;SDS011;50075;49.484;11.238;2022-09-01T04:41:44;36.30;;;8.30;;
63906;SDS011;50075;49.484;11.238;2022-09-01T04:44:10;43.75;;;9.32;;
63906;SDS011;50075;49.484;11.238;2022-09-01T04:46:38;33.72;;;8.07;;
63906;SDS011;50075;49.484;11.238;2022-09-01T04:49:06;34.08;;;8.38;;
63906;SDS011;50075;49.484;11.238;2022-09-01T04:51:36;41.33;;;8.68;;
63906;SDS011;50075;49.484;11.238;2022-09-01T04:54:06;35.45;;;8.00;;
63906;SDS011;50075;49.484;11.238;2022-09-01T04:56:36;39.92;;;8.75;;
63906;SDS011;50075;49.484;11.238;2022-09-01T04:59:02;30.55;;;7.43;;
63906;SDS011;50075;49.484;11.238;2022-09-01T05:01:31;44.80;;;9.05;;
63906;SDS011;50075;49.484;11.238;2022-09-01T05:04:07;39.75;;;8.73;;
63906;SDS011;50075;49.484;11.238;2022-09-01T05:06:33;50.70;;;9.52;;
63906;SDS011;50075;49.484;11.238;2022-09-01T05:09:03;37.10;;;8.10;;
63906;SDS011;50075;49.484;11.238;2022-09-01T05:11:29;44.17;;;9.30;;
63906;SDS011;50075;49.484;11.238;2022-09-01T05:13:56;31.55;;;7.55;;
63906;SDS011;50075;49.484;11.238;2022-09-01T05:16:22;26.77;;;7.00;;
63906;SDS011;50075;49.484;11.238;2022-09-01T05:18:51;32.03;;;7.55;;
63906;SDS011;50075;49.484;11.238;2022-09-01T05:21:20;37.95;;;7.75;;
63906;SDS011;50075;49.484;11.238;2022-09-01T05:23:52;33.08;;;6.82;;
63906;SDS011;50075;49.484;11.238;2022-09-01T05:26:19;37.25;;;7.38;;
63906;SDS011;50075;49.484;11.238;2022-09-01T05:28:48;31.33;;;6.10;;
63906;SDS011;50075;49.484;11.238;2022-09-01T05:31:19;32.93;;;6.43;;
63906;SDS011;50075;49.484;11.238;2022-09-01T05:33:47;36.78;;;6.40;;
63906;SDS011;50075;49.484;11.238;2022-09-01T05:36:16;28.08;;;5.72;;
63906;SDS011;50075;49.484;11.238;2022-09-01T05:38:44;39.15;;;6.90;;
63906;SDS011;50075;49.484;11.238;2022-09-01T05:41:11;35.28;;;6.60;;
63906;SDS011;50075;49.484;11.238;2022-09-01T05:43:41;35.58;;;6.45;;
63906;SDS011;50075;49.484;11.238;2022-09-01T05:46:13;33.88;;;6.18;;
63906;SDS011;50075;49.484;11.238;2022-09-01T05:48:41;37.95;;;7.05;;
63906;SDS011;50075;49.484;11.238;2022-09-01T05:51:08;35.92;;;6.43;;
63906;SDS011;50075;49.484;11.238;2022-09-01T05:53:35;26.30;;;5.60;;
63906;SDS011;50075;49.484;11.238;2022-09-01T05:56:04;34.10;;;6.15;;
63906;SDS011;50075;49.484;11.238;2022-09-01T05:58:32;25.13;;;5.35;;
63906;SDS011;50075;49.484;11.238;2022-09-01T06:00:59;38.47;;;6.95;;
63906;SDS011;50075;49.484;11.238;2022-09-01T06:03:26;23.88;;;5.53;;
63906;SDS011;50075;49.484;11.238;2022-09-01T06:05:53;25.33;;;5.45;;
63906;SDS011;50075;49.484;11.238;2022-09-01T06:08:20;28.63;;;6.32;;
63906;SDS011;50075;49.484;11.238;2022-09-01T06:10:49;32.63;;;6.20;;
63906;SDS011;50075;49.484;11.238;2022-09-01T06:13:16;32.08;;;6.10;;
63906;SDS011;50075;49.484;11.238;2022-09-01T06:15:46;27.85;;;6.05;;
63906;SDS011;50075;49.484;11.238;2022-09-01T06:18:17;28.05;;;5.72;;
63906;SDS011;50075;49.484;11.238;2022-09-01T06:20:44;32.85;;;5.85;;
63906;SDS011;50075;49.484;11.238;2022-09-01T06:23:11;31.30;;;5.78;;
63906;SDS011;50075;49.484;11.238;2022-09-01T06:25:42;27.02;;;5.25;;
63906;SDS011;50075;49.484;11.238;2022-09-01T06:28:13;32.88;;;6.18;;
63906;SDS011;50075;49.484;11.238;2022-09-01T06:30:40;27.88;;;5.63;;
63906;SDS011;50075;49.484;11.238;2022-09-01T06:33:07;28.60;;;5.57;;
63906;SDS011;50075;49.484;11.238;2022-09-01T06:35:37;30.98;;;5.55;;
63906;SDS011;50075;49.484;11.238;2022-09-01T06:38:05;29.97;;;5.33;;
63906;SDS011;50075;49.484;11.238;2022-09-01T06:40:31;25.27;;;4.93;;
63906;SDS011;50075;49.484;11.238;2022-09-01T06:42:57;26.23;;;5.28;;
63906;SDS011;50075;49.484;11.238;2022-09-01T06:45:26;37.22;;;6.07;;
63906;SDS011;50075;49.484;11.238;2022-09-01T06:47:52;25.95;;;4.97;;
63906;SDS011;50075;49.484;11.238;2022-09-01T06:50:18;22.08;;;4.78;;
63906;SDS011;50075;49.484;11.238;2022-09-01T06:52:48;25.83;;;5.38;;
63906;SDS011;50075;49.484;11.238;2022-09-01T06:55:25;22.35;;;4.70;;
63906;SDS011;50075;49.484;11.238;2022-09-01T06:57:56;26.90;;;4.85;;
63906;SDS011;50075;49.484;11.238;2022-09-01T07:00:23;20.05;;;4.65;;
63906;SDS011;50075;49.484;11.238;2022-09-01T07:02:54;16.00;;;4.00;;
63906;SDS011;50075;49.484;11.238;2022-09-01T07:05:21;19.67;;;4.35;;
63906;SDS011;50075;49.484;11.238;2022-09-01T07:07:47;19.75;;;4.45;;
63906;SDS011;50075;49.484;11.238;2022-09-01T07:10:16;19.15;;;4.32;;
63906;SDS011;50075;49.484;11.238;2022-09-01T07:12:47;19.38;;;4.55;;
63906;SDS011;50075;49.484;11.238;2022-09-01T07:15:13;18.90;;;4.40;;
63906;SDS011;50075;49.484;11.238;2022-09-01T07:17:40;18.95;;;4.47;;
63906;SDS011;50075;49.484;11.238;2022-09-01T07:20:06;19.95;;;4.18;;
63906;SDS011;50075;49.484;11.238;2022-09-01T07:22:33;18.63;;;3.80;;
63906;SDS011;50075;49.484;11.238;2022-09-01T07:24:58;12.85;;;3.72;;
63906;SDS011;50075;49.484;11.238;2022-09-01T07:27:23;18.13;;;4.10;;
63906;SDS011;50075;49.484;11.238;2022-09-01T07:29:51;20.02;;;4.57;;
63906;SDS011;50075;49.484;11.238;2022-09-01T07:32:18;18.80;;;4.20;;
63906;SDS011;50075;49.484;11.238;2022-09-01T07:34:44;20.42;;;4.72;;
63906;SDS011;50075;49.484;11.238;2022-09-01T07:37:10;15.65;;;4.10;;
63906;SDS011;50075;49.484;11.238;2022-09-01T07:39:37;14.70;;;3.95;;
63906;SDS011;50075;49.484;11.238;2022-09-01T07:42:07;16.17;;;4.30;;
63906;SDS011;50075;49.484;11.238;2022-09-01T07:44:35;19.55;;;4.32;;
63906;SDS011;50075;49.484;11.238;2022-09-01T07:47:02;21.25;;;4.85;;
63906;SDS011;50075;49.484;11.238;2022-09-01T07:49:32;11.60;;;3.67;;
63906;SDS011;50075;49.484;11.238;2022-09-01T07:51:58;23.67;;;5.00;;
63906;SDS011;50075;49.484;11.238;2022-09-01T07:54:25;15.25;;;4.10;;
63906;SDS011;50075;49.484;11.238;2022-09-01T07:56:51;23.73;;;4.70;;
63906;SDS011;50075;49.484;11.238;2022-09-01T07:59:19;18.42;;;4.38;;
63906;SDS011;50075;49.484;11.238;2022-09-01T08:01:45;16.00;;;4.05;;
63906;SDS011;50075;49.484;11.238;2022-09-01T08:04:11;20.27;;;4.82;;
63906;SDS011;50075;49.484;11.238;2022-09-01T08:06:37;17.52;;;4.22;;
63906;SDS011;50075;49.484;11.238;2022-09-01T08:09:03;16.35;;;4.18;;
63906;SDS011;50075;49.484;11.238;2022-09-01T08:11:31;14.15;;;3.63;;
63906;SDS011;50075;49.484;11.238;2022-09-01T08:13:57;17.13;;;4.10;;
63906;SDS011;50075;49.484;11.238;2022-09-01T08:16:24;16.88;;;4.10;;
63906;SDS011;50075;49.484;11.238;2022-09-01T08:18:54;15.73;;;3.80;;
63906;SDS011;50075;49.484;11.238;2022-09-01T08:21:21;19.20;;;4.32;;
63906;SDS011;50075;49.484;11.238;2022-09-01T08:23:48;16.13;;;3.92;;
63906;SDS011;50075;49.484;11.238;2022-09-01T08:26:16;16.33;;;4.18;;
63906;SDS011;50075;49.484;11.238;2022-09-01T08:28:42;15.35;;;3.83;;
63906;SDS011;50075;49.484;11.238;2022-09-01T08:31:09;16.15;;;3.75;;
63906;SDS011;50075;49.484;11.238;2022-09-01T08:33:38;15.80;;;3.95;;
63906;SDS011;50075;49.484;11.238;2022-09-01T08:36:06;12.57;;;3.80;;
63906;SDS011;50075;49.484;11.238;2022-09-01T08:38:32;19.92;;;4.68;;
63906;SDS011;50075;49.484;11.238;2022-09-01T08:40:58;21.13;;;4.53;;
63906;SDS011;50075;49.484;11.238;2022-09-01T08:46:13;14.82;;;3.80;;
63906;SDS011;50075;49.484;11.238;2022-09-01T08:48:41;17.35;;;4.03;;
63906;SDS011;50075;49.484;11.238;2022-09-01T08:51:20;14.65;;;3.65;;
63906;SDS011;50075;49.484;11.238;2022-09-01T08:53:55;14.07;;;3.58;;
63906;SDS011;50075;49.484;11.238;2022-09-01T08:56:27;13.40;;;3.67;;
63906;SDS011;50075;49.484;11.238;2022-09-01T08:58:52;16.63;;;3.80;;
63906;SDS011;50075;49.484;11.238;2022-09-01T09:01:28;11.45;;;3.60;;
63906;SDS011;50075;49.484;11.238;2022-09-01T09:06:46;17.77;;;4.22;;
63906;SDS011;50075;49.484;11.238;2022-09-01T09:09:32;12.73;;;3.20;;
63906;SDS011;50075;49.484;11.238;2022-09-01T09:12:31;14.38;;;3.80;;
63906;SDS011;50075;49.484;11.238;2022-09-01T09:17:33;12.90;;;3.67;;
63906;SDS011;50075;49.484;11.238;2022-09-01T09:20:04;12.15;;;3.45;;
63906;SDS011;50075;49.484;11.238;2022-09-01T09:22:30;11.90;;;3.78;;
63906;SDS011;50075;49.484;11.238;2022-09-01T09:25:10;12.18;;;3.40;;
63906;SDS011;50075;49.484;11.238;2022-09-01T09:27:48;14.57;;;3.40;;
63906;SDS011;50075;49.484;11.238;2022-09-01T09:30:25;15.45;;;3.83;;
63906;SDS011;50075;49.484;11.238;2022-09-01T09:33:00;11.68;;;3.55;;
63906;SDS011;50075;49.484;11.238;2022-09-01T09:35:49;12.45;;;3.40;;
63906;SDS011;50075;49.484;11.238;2022-09-01T09:41:02;17.38;;;4.15;;
63906;SDS011;50075;49.484;11.238;2022-09-01T09:43:29;12.43;;;3.45;;
63906;SDS011;50075;49.484;11.238;2022-09-01T09:49:04;13.93;;;3.80;;
63906;SDS011;50075;49.484;11.238;2022-09-01T09:51:34;12.32;;;3.45;;
63906;SDS011;50075;49.484;11.238;2022-09-01T10:05:00;16.17;;;3.75;;
63906;SDS011;50075;49.484;11.238;2022-09-01T10:07:46;19.08;;;4.03;;
63906;SDS011;50075;49.484;11.238;2022-09-01T10:12:53;14.95;;;3.47;;
63906;SDS011;50075;49.484;11.238;2022-09-01T10:15:22;21.13;;;4.50;;
63906;SDS011;50075;49.484;11.238;2022-09-01T10:17:52;17.48;;;3.75;;
63906;SDS011;50075;49.484;11.238;2022-09-01T10:20:21;17.23;;;4.15;;
63906;SDS011;50075;49.484;11.238;2022-09-01T10:22:49;17.70;;;4.05;;
63906;SDS011;50075;49.484;11.238;2022-09-01T10:25:16;17.50;;;3.97;;
63906;SDS011;50075;49.484;11.238;2022-09-01T10:27:46;19.10;;;4.40;;
63906;SDS011;50075;49.484;11.238;2022-09-01T10:30:16;18.73;;;4.22;;
63906;SDS011;50075;49.484;11.238;2022-09-01T10:35:21;21.73;;;4.30;;
63906;SDS011;50075;49.484;11.238;2022-09-01T10:37:50;15.60;;;3.80;;
63906;SDS011;50075;49.484;11.238;2022-09-01T10:42:57;15.02;;;3.53;;
63906;SDS011;50075;49.484;11.238;2022-09-01T10:45:41;15.63;;;3.88;;
63906;SDS011;50075;49.484;11.238;2022-09-01T10:50:49;24.23;;;4.70;;
63906;SDS011;50075;49.484;11.238;2022-09-01T10:56:40;22.20;;;4.25;;
63906;SDS011;50075;49.484;11.238;2022-09-01T11:09:05;25.42;;;4.75;;
63906;SDS011;50075;49.484;11.238;2022-09-01T11:14:32;20.25;;;4.40;;
63906;SDS011;50075;49.484;11.238;2022-09-01T11:19:46;31.60;;;5.25;;
63906;SDS011;50075;49.484;11.238;2022-09-01T11:22:34;20.60;;;4.30;;
63906;SDS011;50075;49.484;11.238;2022-09-01T11:33:26;28.60;;;4.88;;
63906;SDS011;50075;49.484;11.238;2022-09-01T11:35:59;31.30;;;5.93;;
63906;SDS011;50075;49.484;11.238;2022-09-01T11:41:06;32.75;;;5.80;;
63906;SDS011;50075;49.484;11.238;2022-09-01T11:43:31;22.23;;;4.53;;
63906;SDS011;50075;49.484;11.238;2022-09-01T11:46:18;29.35;;;5.35;;
63906;SDS011;50075;49.484;11.238;2022-09-01T11:48:48;20.83;;;4.80;;
63906;SDS011;50075;49.484;11.238;2022-09-01T11:51:14;25.63;;;5.32;;
63906;SDS011;50075;49.484;11.238;2022-09-01T11:53:41;26.67;;;5.05;;
63906;SDS011;50075;49.484;11.238;2022-09-01T11:59:05;28.23;;;5.00;;
63906;SDS011;50075;49.484;11.238;2022-09-01T12:04:16;21.13;;;4.03;;
63906;SDS011;50075;49.484;11.238;2022-09-01T12:06:55;23.73;;;4.43;;
63906;SDS011;50075;49.484;11.238;2022-09-01T12:09:34;23.13;;;4.80;;
63906;SDS011;50075;49.484;11.238;2022-09-01T12:12:06;29.48;;;5.30;;
63906;SDS011;50075;49.484;11.238;2022-09-01T12:14:57;23.38;;;4.50;;
63906;SDS011;50075;49.484;11.238;2022-09-01T12:17:24;30.67;;;5.40;;
63906;SDS011;50075;49.484;11.238;2022-09-01T12:19:50;25.73;;;4.88;;
63906;SDS011;50075;49.484;11.238;2022-09-01T12:22:17;26.58;;;5.05;;
63906;SDS011;50075;49.484;11.238;2022-09-01T12:24:46;29.65;;;5.20;;
63906;SDS011;50075;49.484;11.238;2022-09-01T12:27:16;32.30;;;5.80;;
63906;SDS011;50075;49.484;11.238;2022-09-01T12:29:42;23.20;;;4.63;;
63906;SDS011;50075;49.484;11.238;2022-09-01T12:32:08;16.88;;;3.83;;
63906;SDS011;50075;49.484;11.238;2022-09-01T12:34:36;32.88;;;4.97;;
63906;SDS011;50075;49.484;11.238;2022-09-01T12:37:18;23.40;;;4.47;;
63906;SDS011;50075;49.484;11.238;2022-09-01T12:39:52;17.60;;;4.10;;
63906;SDS011;50075;49.484;11.238;2022-09-01T12:42:26;27.10;;;4.82;;
63906;SDS011;50075;49.484;11.238;2022-09-01T12:49:59;27.27;;;4.93;;
63906;SDS011;50075;49.484;11.238;2022-09-01T12:52:28;26.80;;;5.20;;
63906;SDS011;50075;49.484;11.238;2022-09-01T12:57:37;24.63;;;4.55;;
63906;SDS011;50075;49.484;11.238;2022-09-01T13:02:42;27.67;;;5.22;;
63906;SDS011;50075;49.484;11.238;2022-09-01T13:05:17;24.30;;;5.07;;
63906;SDS011;50075;49.484;11.238;2022-09-01T13:07:48;34.83;;;5.60;;
63906;SDS011;50075;49.484;11.238;2022-09-01T13:10:16;20.80;;;4.18;;
63906;SDS011;50075;49.484;11.238;2022-09-01T13:12:43;28.02;;;5.15;;
63906;SDS011;50075;49.484;11.238;2022-09-01T13:15:09;29.35;;;4.93;;
63906;SDS011;50075;49.484;11.238;2022-09-01T13:17:35;28.67;;;4.93;;
63906;SDS011;50075;49.484;11.238;2022-09-01T13:20:02;21.75;;;4.60;;
63906;SDS011;50075;49.484;11.238;2022-09-01T13:22:29;32.05;;;5.53;;
63906;SDS011;50075;49.484;11.238;2022-09-01T13:24:54;26.23;;;5.07;;
63906;SDS011;50075;49.484;11.238;2022-09-01T13:27:20;27.88;;;4.80;;
63906;SDS011;50075;49.484;11.238;2022-09-01T13:29:46;26.38;;;4.80;;
63906;SDS011;50075;49.484;11.238;2022-09-01T13:32:12;31.95;;;5.43;;
63906;SDS011;50075;49.484;11.238;2022-09-01T13:34:38;26.20;;;4.88;;
63906;SDS011;50075;49.484;11.238;2022-09-01T13:37:04;32.90;;;5.47;;
63906;SDS011;50075;49.484;11.238;2022-09-01T13:39:30;24.67;;;4.90;;
63906;SDS011;50075;49.484;11.238;2022-09-01T13:41:56;23.83;;;4.65;;
63906;SDS011;50075;49.484;11.238;2022-09-01T13:44:21;32.53;;;5.00;;
63906;SDS011;50075;49.484;11.238;2022-09-01T13:46:47;28.13;;;5.25;;
63906;SDS011;50075;49.484;11.238;2022-09-01T13:49:12;36.10;;;5.82;;
63906;SDS011;50075;49.484;11.238;2022-09-01T13:51:38;23.25;;;4.55;;
63906;SDS011;50075;49.484;11.238;2022-09-01T13:54:04;22.73;;;4.65;;
63906;SDS011;50075;49.484;11.238;2022-09-01T13:56:29;21.20;;;4.80;;
63906;SDS011;50075;49.484;11.238;2022-09-01T13:58:55;27.58;;;5.13;;
63906;SDS011;50075;49.484;11.238;2022-09-01T14:01:20;27.23;;;5.15;;
63906;SDS011;50075;49.484;11.238;2022-09-01T14:03:47;29.45;;;5.40;;
63906;SDS011;50075;49.484;11.238;2022-09-01T14:06:13;36.65;;;6.03;;
63906;SDS011;50075;49.484;11.238;2022-09-01T14:08:39;29.10;;;5.63;;
63906;SDS011;50075;49.484;11.238;2022-09-01T14:11:04;34.47;;;5.90;;
63906;SDS011;50075;49.484;11.238;2022-09-01T14:13:30;21.15;;;4.65;;
63906;SDS011;50075;49.484;11.238;2022-09-01T14:15:56;24.17;;;4.22;;
63906;SDS011;50075;49.484;11.238;2022-09-01T14:18:22;36.17;;;5.82;;
63906;SDS011;50075;49.484;11.238;2022-09-01T14:20:49;25.70;;;4.82;;
63906;SDS011;50075;49.484;11.238;2022-09-01T14:23:17;42.10;;;5.78;;
63906;SDS011;50075;49.484;11.238;2022-09-01T14:25:45;26.17;;;4.88;;
63906;SDS011;50075;49.484;11.238;2022-09-01T14:28:13;26.00;;;4.70;;
63906;SDS011;50075;49.484;11.238;2022-09-01T14:30:40;24.25;;;4.50;;
63906;SDS011;50075;49.484;11.238;2022-09-01T14:33:10;24.07;;;4.67;;
63906;SDS011;50075;49.484;11.238;2022-09-01T14:35:40;19.85;;;4.28;;
63906;SDS011;50075;49.484;11.238;2022-09-01T14:38:08;27.27;;;4.90;;
63906;SDS011;50075;49.484;11.238;2022-09-01T14:40:35;29.15;;;5.45;;
63906;SDS011;50075;49.484;11.238;2022-09-01T14:43:03;22.50;;;4.45;;
63906;SDS011;50075;49.484;11.238;2022-09-01T14:45:30;37.25;;;5.90;;
63906;SDS011;50075;49.484;11.238;2022-09-01T14:47:57;20.17;;;4.30;;
63906;SDS011;50075;49.484;11.238;2022-09-01T14:50:25;34.08;;;5.80;;
63906;SDS011;50075;49.484;11.238;2022-09-01T14:52:53;29.20;;;5.15;;
63906;SDS011;50075;49.484;11.238;2022-09-01T14:55:23;29.65;;;5.30;;
63906;SDS011;50075;49.484;11.238;2022-09-01T14:57:51;28.52;;;4.82;;
63906;SDS011;50075;49.484;11.238;2022-09-01T15:00:17;28.23;;;5.38;;
63906;SDS011;50075;49.484;11.238;2022-09-01T15:02:43;34.80;;;5.55;;
63906;SDS011;50075;49.484;11.238;2022-09-01T15:05:09;31.00;;;5.30;;
63906;SDS011;50075;49.484;11.238;2022-09-01T15:07:36;30.70;;;5.55;;
63906;SDS011;50075;49.484;11.238;2022-09-01T15:10:03;24.02;;;4.72;;
63906;SDS011;50075;49.484;11.238;2022-09-01T15:12:30;22.30;;;4.35;;
63906;SDS011;50075;49.484;11.238;2022-09-01T15:14:59;31.33;;;5.60;;
63906;SDS011;50075;49.484;11.238;2022-09-01T15:17:25;17.67;;;4.00;;
63906;SDS011;50075;49.484;11.238;2022-09-01T15:19:51;32.30;;;5.80;;
63906;SDS011;50075;49.484;11.238;2022-09-01T15:22:17;25.55;;;4.95;;
63906;SDS011;50075;49.484;11.238;2022-09-01T15:24:42;37.55;;;5.97;;
63906;SDS011;50075;49.484;11.238;2022-09-01T15:27:08;26.67;;;4.93;;
63906;SDS011;50075;49.484;11.238;2022-09-01T15:29:35;25.42;;;4.65;;
63906;SDS011;50075;49.484;11.238;2022-09-01T15:32:10;30.67;;;5.50;;
63906;SDS011;50075;49.484;11.238;2022-09-01T15:34:36;25.33;;;4.95;;
63906;SDS011;50075;49.484;11.238;2022-09-01T15:37:02;28.70;;;5.15;;
63906;SDS011;50075;49.484;11.238;2022-09-01T15:39:28;26.23;;;4.65;;
63906;SDS011;50075;49.484;11.238;2022-09-01T15:41:54;35.30;;;5.57;;
63906;SDS011;50075;49.484;11.238;2022-09-01T15:44:19;25.85;;;4.80;;
63906;SDS011;50075;49.484;11.238;2022-09-01T15:46:46;24.45;;;4.90;;
63906;SDS011;50075;49.484;11.238;2022-09-01T15:49:11;29.15;;;5.55;;
63906;SDS011;50075;49.484;11.238;2022-09-01T15:51:46;26.48;;;5.15;;
63906;SDS011;50075;49.484;11.238;2022-09-01T15:54:12;31.67;;;5.15;;
63906;SDS011;50075;49.484;11.238;2022-09-01T15:56:40;23.75;;;4.45;;